createdAt,value
2018-11-28T00:13:33.116Z,14.50
2018-11-28T00:34:11.364Z,13.83
2018-11-28T00:54:50.004Z,12.70
2018-11-28T01:15:30.298Z,14.10
2018-11-28T01:36:08.539Z,13.07
2018-11-28T01:56:46.785Z,13.30
2018-11-28T02:17:25.025Z,12.07
2018-11-28T02:38:01.249Z,12.40
2018-11-28T02:58:40.280Z,13.50
2018-11-28T03:19:15.853Z,14.37
2018-11-28T03:39:53.892Z,12.73
2018-11-28T04:00:32.141Z,13.57
2018-11-28T04:21:08.743Z,13.50
2018-11-28T04:41:47.806Z,13.77
2018-11-28T05:02:27.151Z,14.80
2018-11-28T05:23:02.240Z,14.10
2018-11-28T05:43:38.631Z,14.70
2018-11-28T06:04:15.855Z,13.43
2018-11-28T06:24:54.919Z,15.50
2018-11-28T06:45:33.160Z,13.20
2018-11-28T07:06:15.709Z,12.93
2018-11-28T07:26:56.606Z,13.87
2018-11-28T07:47:36.269Z,13.30
2018-11-28T08:08:19.234Z,12.53
2018-11-28T08:29:00.751Z,13.07
2018-11-28T08:49:35.086Z,13.10
2018-11-28T09:10:21.333Z,12.97
2018-11-28T09:31:01.624Z,13.60
2018-11-28T09:51:43.959Z,11.90
2018-11-28T10:12:22.199Z,12.57
2018-11-28T10:33:04.572Z,13.63
2018-11-28T10:53:41.552Z,12.47
2018-11-28T11:14:22.662Z,11.50
2018-11-28T11:35:00.124Z,11.27
2018-11-28T11:55:37.664Z,11.10
2018-11-28T12:16:21.393Z,10.57
2018-11-28T12:36:56.037Z,11.27
2018-11-28T12:57:36.436Z,11.83
2018-11-28T13:18:16.615Z,10.93
2018-11-28T13:38:55.675Z,12.13
2018-11-28T13:59:33.096Z,9.90
2018-11-28T14:20:11.356Z,9.77
2018-11-28T14:40:49.760Z,9.87
2018-11-28T15:01:25.774Z,8.83
2018-11-28T15:22:05.243Z,10.57
2018-11-28T15:42:45.127Z,10.87
2018-11-28T16:03:27.472Z,9.50
2018-11-28T16:24:04.887Z,10.07
2018-11-28T16:44:43.946Z,10.23
2018-11-28T17:05:25.834Z,10.23
2018-11-28T17:26:02.887Z,10.63
2018-11-28T17:46:43.192Z,9.37
2018-11-28T18:07:19.372Z,8.90
2018-11-28T18:28:01.723Z,12.80
2018-11-28T18:48:42.822Z,10.10
2018-11-28T19:09:27.209Z,10.87
2018-11-28T19:30:01.563Z,9.80
2018-11-28T19:50:38.800Z,10.27
2018-11-28T20:11:19.068Z,9.90
2018-11-28T20:31:57.311Z,11.77
2018-11-28T20:52:36.373Z,11.00
2018-11-28T21:13:16.663Z,9.50
2018-11-28T21:33:57.776Z,10.27
2018-11-28T21:54:36.442Z,10.17
2018-11-28T22:15:13.434Z,10.47
2018-11-28T22:36:03.964Z,8.80
2018-11-28T22:56:40.159Z,9.73
2018-11-28T23:17:15.539Z,8.93
2018-11-28T23:37:53.370Z,8.47
2018-11-28T23:58:33.658Z,9.40
